Ivalo, Finland

5:54 AM EET on December 03, 2016 (GMT +0200)
Ivalo | | Change Station

Elev 486 ft 68.61 °N, 27.41 °E | Updated 4 minutes ago

Light Snow Showers
Light Showers Snow
12 °F
Feels Like 4 °F
N
5
Wind Variable Wind from NNW

Today
High -- | Low -- °F
--% Chance of Precip.
Yesterday
High -- | Low -- °F
Precip. -- in
Pressure 29.92 in
Visibility 6.2 miles
Clouds Few 1700 ft
Windchill 4 °F
Dew Point 10 °F
Humidity 92%
Rainfall 0.00 in
Snow Depth Not available.
11:46 AM 12:13 PM
Waxing Crescent, 12% visible
METAR EFIV 030350Z AUTO 33004KT 300V010 9999 -SHSN FEW017 M11/M12 Q1013
Pressure 29.92 in
Visibility 6.2 miles
Clouds Few 1700 ft
Windchill 4 °F
Dew Point 10 °F
Humidity 92%
Rainfall 0.00 in
Snow Depth Not available.
11:46 AM 12:13 PM
Waxing Crescent, 12% visible
METAR EFIV 030350Z AUTO 33004KT 300V010 9999 -SHSN FEW017 M11/M12 Q1013

10-Day Weather Forecast

×

Almanac

Astronomy

Dec. 03, 2016 Rise Set
Actual Time
Civil Twilight
Nautical Twilight
Astronomical Twilight
Moon
Length of Visible Light
Length of Day
Tomorrow will be .
, % of the Moon is Illuminated

Today's Extremes

Country Highs Country Lows

Community

WunderPhotos

Upload Photos

1,955,405 photos uploaded!

WunderBlog® & News

Nearby

Air Quality

  Air Quality AQ Index Pollutant
Not available.

Snow Depth

Station Depth Elevation

Earthquake Activity

City Distance Mag. Time & Date
Minimum magnitude displayed is 2.5.

Coastal Water Temperatures

Place Temperature

Stations

Nearby Weather Stations

Station Location Temp. Windchill Dew Point Humidity Wind Precip. Elev Updated Type